createdAt,value
2018-03-08T00:02:16.626Z,66.41
2018-03-08T00:04:50.660Z,66.53
2018-03-08T00:07:23.913Z,66.62
2018-03-08T00:09:57.186Z,66.88
2018-03-08T00:12:30.454Z,66.95
2018-03-08T00:15:03.721Z,67.06
2018-03-08T01:45:55.929Z,67.34
2018-03-08T01:48:29.967Z,67.33
2018-03-08T01:51:03.245Z,67.22
2018-03-08T01:53:36.493Z,67.11
2018-03-08T01:56:09.766Z,67.00
2018-03-08T01:58:43.012Z,66.96
2018-03-08T03:32:21.912Z,66.98
2018-03-08T03:34:55.157Z,67.23
2018-03-08T03:37:29.202Z,67.24
2018-03-08T03:40:02.440Z,67.44
2018-03-08T03:42:35.712Z,67.58
2018-03-08T03:45:08.953Z,67.94
2018-03-08T04:46:17.445Z,70.19
2018-03-08T04:48:50.730Z,70.33
2018-03-08T04:51:23.954Z,70.42
2018-03-08T04:53:57.226Z,70.41
2018-03-08T04:56:30.484Z,70.37
2018-03-08T04:59:03.756Z,70.43
2018-03-08T05:30:59.378Z,70.79
2018-03-08T05:33:32.653Z,70.97
2018-03-08T05:36:05.901Z,70.92
2018-03-08T05:38:39.221Z,71.08
2018-03-08T05:41:12.476Z,70.95
2018-03-08T05:43:45.745Z,70.84
2018-03-08T05:46:19.009Z,70.81
2018-03-08T05:48:52.281Z,70.71
2018-03-08T05:51:25.520Z,70.64
2018-03-08T05:53:58.804Z,70.59
2018-03-08T05:56:32.817Z,70.54
2018-03-08T05:59:06.869Z,70.41
2018-03-08T06:01:40.139Z,70.42
2018-03-08T06:04:13.377Z,70.34
2018-03-08T06:06:46.657Z,70.25
2018-03-08T06:09:19.909Z,70.21
2018-03-08T06:11:53.934Z,70.14
2018-03-08T06:14:27.216Z,70.17
2018-03-08T06:17:01.225Z,70.15
2018-03-08T06:19:35.398Z,70.09
2018-03-08T06:22:08.636Z,70.07
2018-03-08T06:24:41.900Z,70.04
2018-03-08T06:27:15.148Z,70.11
2018-03-08T06:29:48.431Z,70.09
2018-03-08T06:32:21.702Z,70.07
2018-03-08T06:34:55.754Z,70.07
2018-03-08T06:37:29.577Z,70.12
2018-03-08T06:40:02.866Z,69.99
2018-03-08T06:42:36.118Z,69.91
2018-03-08T06:45:10.153Z,69.89
2018-03-08T06:47:43.393Z,69.74
2018-03-08T06:50:16.661Z,69.65
2018-03-08T06:52:49.934Z,69.53
2018-03-08T06:55:23.205Z,69.39
2018-03-08T06:57:56.481Z,69.33
2018-03-08T07:00:29.734Z,69.22
2018-03-08T07:03:03.018Z,69.20
2018-03-08T07:05:36.286Z,69.07
2018-03-08T07:08:09.580Z,68.68
2018-03-08T07:10:42.830Z,68.87
2018-03-08T07:13:16.108Z,68.51
2018-03-08T07:15:49.417Z,68.41
2018-03-08T07:18:22.721Z,68.41
2018-03-08T07:20:55.967Z,68.17
2018-03-08T07:23:29.230Z,67.94
2018-03-08T07:26:03.247Z,67.74
2018-03-08T07:28:37.322Z,67.78
2018-03-08T08:03:31.906Z,64.82
2018-03-08T08:09:16.645Z,64.55
2018-03-08T08:11:49.922Z,64.27
2018-03-08T08:14:23.170Z,63.61
2018-03-08T09:02:29.661Z,57.01
2018-03-08T09:05:03.670Z,56.79
2018-03-08T09:07:37.729Z,57.37
2018-03-08T09:10:10.953Z,57.24
2018-03-08T09:12:44.230Z,57.03
2018-03-08T10:00:56.206Z,51.77
2018-03-08T10:03:29.478Z,51.10
2018-03-08T10:06:02.724Z,49.74
2018-03-08T10:08:35.993Z,49.65
2018-03-08T10:11:10.002Z,50.37
2018-03-08T10:13:44.056Z,49.98
2018-03-08T11:04:52.739Z,46.74
2018-03-08T11:07:26.010Z,45.67
2018-03-08T11:09:59.262Z,45.99
2018-03-08T11:12:32.533Z,46.42
2018-03-08T11:15:05.776Z,47.22
2018-03-08T12:03:11.120Z,44.95
2018-03-08T12:05:44.369Z,44.73
2018-03-08T12:08:17.650Z,45.57
2018-03-08T12:10:51.652Z,45.55
2018-03-08T12:13:25.700Z,45.25
2018-03-08T13:01:32.578Z,38.83
2018-03-08T13:04:06.593Z,39.20
2018-03-08T13:06:39.885Z,40.16
2018-03-08T13:09:13.146Z,40.47
2018-03-08T13:11:46.427Z,40.74
2018-03-08T13:14:19.661Z,40.72
2018-03-08T14:02:27.430Z,34.83
2018-03-08T14:05:01.479Z,33.91
2018-03-08T14:07:34.738Z,34.15
2018-03-08T14:10:08.894Z,33.70
2018-03-08T14:12:42.189Z,32.70
2018-03-08T15:00:55.793Z,30.07
2018-03-08T15:03:29.083Z,30.03
2018-03-08T15:06:02.342Z,30.38
2018-03-08T15:08:35.597Z,30.52
2018-03-08T15:11:08.872Z,30.57
2018-03-08T15:13:42.153Z,30.42
2018-03-08T15:45:54.076Z,31.90
2018-03-08T15:48:27.329Z,31.65
2018-03-08T15:51:00.618Z,31.46
2018-03-08T15:53:33.874Z,31.51
2018-03-08T15:56:07.167Z,31.20
2018-03-08T15:58:40.445Z,31.10
2018-03-08T16:30:56.300Z,31.74
2018-03-08T16:33:29.549Z,31.83
2018-03-08T16:36:02.865Z,31.96
2018-03-08T16:38:36.085Z,32.18
2018-03-08T16:41:09.369Z,32.34
2018-03-08T16:43:42.633Z,32.48
2018-03-08T16:46:15.930Z,32.44
2018-03-08T16:48:49.933Z,32.42
2018-03-08T16:51:23.437Z,32.49
2018-03-08T16:53:56.685Z,32.50
2018-03-08T16:56:29.966Z,32.59
2018-03-08T16:59:03.234Z,32.71
2018-03-08T17:01:37.254Z,32.77
2018-03-08T17:04:11.294Z,32.89
2018-03-08T17:06:44.554Z,33.07
2018-03-08T17:09:18.639Z,33.22
2018-03-08T17:11:51.837Z,33.42
2018-03-08T17:14:25.105Z,33.42
2018-03-08T17:16:58.354Z,33.53
2018-03-08T17:19:32.399Z,33.63
2018-03-08T17:22:05.650Z,33.76
2018-03-08T17:24:38.925Z,33.91
2018-03-08T17:27:12.194Z,34.08
2018-03-08T17:29:45.442Z,34.21
2018-03-08T17:32:18.879Z,34.33
2018-03-08T17:34:52.340Z,34.53
2018-03-08T17:37:25.834Z,34.63
2018-03-08T17:39:59.241Z,34.66
2018-03-08T17:42:32.547Z,34.78
2018-03-08T17:45:05.787Z,34.80
2018-03-08T17:47:39.060Z,35.07
2018-03-08T17:50:12.304Z,35.10
2018-03-08T17:52:46.346Z,35.18
2018-03-08T17:55:19.616Z,35.07
2018-03-08T17:57:53.690Z,34.79
2018-03-08T18:00:26.967Z,34.77
2018-03-08T18:03:00.231Z,34.82
2018-03-08T18:05:33.481Z,34.83
2018-03-08T18:08:06.732Z,34.97
2018-03-08T18:10:40.008Z,35.43
2018-03-08T18:13:13.272Z,35.43
2018-03-08T18:15:47.290Z,35.14
2018-03-08T18:18:21.331Z,35.10
2018-03-08T18:20:54.590Z,35.41
2018-03-08T18:23:29.745Z,35.46
2018-03-08T18:26:06.370Z,35.65
2018-03-08T18:28:41.584Z,35.52
2018-03-08T18:31:14.834Z,35.36
2018-03-08T18:33:48.105Z,35.48
2018-03-08T18:36:21.390Z,35.75
2018-03-08T18:38:54.671Z,36.01
2018-03-08T18:41:27.913Z,36.07
2018-03-08T18:44:01.215Z,36.17
2018-03-08T18:46:35.226Z,36.10
2018-03-08T18:49:09.265Z,36.31
2018-03-08T18:51:42.514Z,36.70
2018-03-08T18:54:15.798Z,36.85
2018-03-08T18:56:49.042Z,36.93
2018-03-08T18:59:22.336Z,37.02
2018-03-08T19:01:55.579Z,37.20
2018-03-08T19:04:28.858Z,37.38
2018-03-08T19:07:02.116Z,37.39
2018-03-08T19:09:35.381Z,37.23
2018-03-08T19:12:09.452Z,37.32
2018-03-08T19:14:42.698Z,37.31
2018-03-08T19:17:15.982Z,37.29
2018-03-08T19:19:49.236Z,37.32
2018-03-08T19:22:22.507Z,37.31
2018-03-08T19:24:55.761Z,37.35
2018-03-08T19:27:29.802Z,37.34
2018-03-08T19:30:03.049Z,37.35
2018-03-08T19:32:36.448Z,37.36
2018-03-08T19:35:10.481Z,37.35
2018-03-08T19:37:44.514Z,37.39
2018-03-08T19:40:17.789Z,37.55
2018-03-08T19:42:51.056Z,37.42
2018-03-08T19:45:24.310Z,37.17
2018-03-08T19:47:57.590Z,37.29
2018-03-08T19:50:30.848Z,37.45
2018-03-08T19:53:04.144Z,37.52
2018-03-08T19:55:38.157Z,37.29
2018-03-08T19:58:12.190Z,37.27
2018-03-08T20:00:45.683Z,37.46
2018-03-08T20:03:19.918Z,37.70
2018-03-08T20:05:53.182Z,37.86
2018-03-08T20:08:26.446Z,38.02
2018-03-08T20:10:59.701Z,38.23
2018-03-08T20:13:32.976Z,38.25
2018-03-08T20:16:07.056Z,38.37
2018-03-08T20:18:40.266Z,38.52
2018-03-08T20:21:13.529Z,38.65
2018-03-08T20:23:46.801Z,38.64
2018-03-08T20:26:20.076Z,38.69
2018-03-08T20:28:53.324Z,38.69
2018-03-08T20:31:26.603Z,38.27
2018-03-08T20:33:59.849Z,38.21
2018-03-08T20:36:33.121Z,38.23
2018-03-08T20:39:07.138Z,38.37
2018-03-08T20:41:41.177Z,38.38
2018-03-08T20:44:14.432Z,38.19
2018-03-08T20:46:47.694Z,38.37
2018-03-08T20:49:20.946Z,38.52
2018-03-08T20:51:54.228Z,38.83
2018-03-08T20:54:28.241Z,38.89
2018-03-08T20:57:02.282Z,38.99
2018-03-08T20:59:35.536Z,38.95
2018-03-08T21:02:09.583Z,39.19
2018-03-08T21:04:42.842Z,39.26
2018-03-08T21:07:16.885Z,39.33
2018-03-08T21:09:50.133Z,39.42
2018-03-08T21:12:23.405Z,39.10
2018-03-08T21:14:56.682Z,39.27
2018-03-08T21:17:30.128Z,39.46
2018-03-08T21:20:04.173Z,39.58
2018-03-08T21:22:37.429Z,39.50
2018-03-08T21:25:10.702Z,39.48
2018-03-08T21:27:43.954Z,39.60
2018-03-08T21:30:17.244Z,39.66
2018-03-08T21:32:50.497Z,39.68
2018-03-08T21:35:23.779Z,39.60
2018-03-08T21:37:57.064Z,39.60
2018-03-08T21:40:30.340Z,39.61
2018-03-08T21:43:03.581Z,39.58
2018-03-08T21:45:36.863Z,39.50
2018-03-08T21:48:10.122Z,39.40
2018-03-08T21:50:43.380Z,39.45
2018-03-08T21:53:17.401Z,39.60
2018-03-08T21:55:50.674Z,39.77
2018-03-08T21:58:23.962Z,39.94
2018-03-08T22:00:57.211Z,40.02
2018-03-08T22:03:30.489Z,40.30
2018-03-08T22:06:03.742Z,40.50
2018-03-08T22:08:37.002Z,40.67
2018-03-08T22:11:10.454Z,40.71
2018-03-08T22:13:44.461Z,40.74
2018-03-08T22:16:17.745Z,40.91
2018-03-08T22:18:51.752Z,40.98
2018-03-08T22:21:25.028Z,41.00
2018-03-08T22:23:58.357Z,41.06
2018-03-08T22:26:31.635Z,41.01
2018-03-08T22:29:04.870Z,41.01
2018-03-08T22:31:38.170Z,40.87
2018-03-08T22:34:11.409Z,40.71
2018-03-08T22:36:44.713Z,40.70
2018-03-08T22:39:18.724Z,40.72
2018-03-08T22:41:52.757Z,40.75
2018-03-08T22:44:26.009Z,40.69
2018-03-08T22:46:59.286Z,40.70
2018-03-08T22:49:32.530Z,40.65
2018-03-08T22:52:06.563Z,40.62
2018-03-08T22:54:39.841Z,40.63
2018-03-08T22:57:13.868Z,40.56
2018-03-08T22:59:47.112Z,40.62
2018-03-08T23:02:25.834Z,40.57
2018-03-08T23:04:59.078Z,40.52
2018-03-08T23:07:32.367Z,40.51
2018-03-08T23:10:05.604Z,40.56
2018-03-08T23:12:38.889Z,40.46
2018-03-08T23:15:12.134Z,40.47
2018-03-08T23:17:46.180Z,40.51
2018-03-08T23:20:19.449Z,40.46
2018-03-08T23:22:52.721Z,40.50
2018-03-08T23:25:26.734Z,40.46
2018-03-08T23:28:00.829Z,40.40
2018-03-08T23:30:34.065Z,40.33
2018-03-08T23:33:07.355Z,40.32
2018-03-08T23:35:40.606Z,40.07
2018-03-08T23:38:13.881Z,40.01
2018-03-08T23:40:47.153Z,40.06
2018-03-08T23:43:20.415Z,40.01
2018-03-08T23:45:54.428Z,39.94
2018-03-08T23:48:28.461Z,40.00
2018-03-08T23:51:01.734Z,39.98
2018-03-08T23:53:35.762Z,39.90
2018-03-08T23:56:09.024Z,39.89
2018-03-08T23:58:42.281Z,39.88
